Current Weather

Kenosha Rgnl

Kenosha, Wisconsin (KENW)

Report from: Sunday, February 5, 2023 10:53 PM CST
Current time: Sunday, February 5, 2023 11:50 PM CST

Nearby weather
Weather history
Weather forecast

Present weatherHaze
Temperature-6.1°C (21.0°F)
Wind chill-8.8°C (16.2°F)
Dew point-8.9°C (16.0°F)
Winds 3 kts (1.5 m/s, 3.5 mph) West (280°)
Visibility6 mi. (9.7 km)
Clouds Sky clear
Altimeter30.14 in.Hg (1021 mB)
Relative humidity81 %
Density altitude-2,817 ft. (-859 m)
Sea-level pressure102.2 kPa (1022 mB, 30.16 in.Hg)
Remarks Fully automated report
Automated weather observing station with precipitation discriminator
Flight conditions Visual Meteorological Conditions
Raw dataKENW 060453Z AUTO 28003KT 6SM HZ CLR M06/M09 A3014 RMK AO2 SLP215 T10611089
An error has occurred. This application may no longer respond until reloaded. Reload 🗙